HKNW

Nairobi Wilson Airport

Nairobi, Kenya
METAR HKNW 171800Z 06008KT 9999 SCT021 19/13 Q1021
Observed Flight Rules
Dec-17 @ 18:00 UTC (9 hours ago) Visual Flight Rules
Wind Visibility Clouds
60° at 8 knots 10,000+ meters
  • Scattered at 2,100' AGL
Temperatures Readings
Current 19°C / 66°F
Dewpoint 13°C / 55°F
Humidity 68%
Altimeter 30.15" Hg
Pressure 1021 hPa
Elevation 1679
METAR HKNW 171800Z 06008KT 9999 SCT021 19/13 Q1021
Observed Flight Rules
Dec-17 @ 18:00 UTC
(9 hours ago)
VFR
Wind Visibility
60° at 8 knots 10,000+ meters
Clouds
  • Scattered at 2,100' AGL
Temperature Dewpoint
19°C / 66°F 13°C / 55°F
Humidity Altimeter Pressure
68% 30.15" Hg 1021 hPa